sensor_id;sensor_type;location;lat;lon;timestamp;P1;durP1;ratioP1;P2;durP2;ratioP2
12958;SDS011;6544;51.666;6.634;2022-10-26T00:00:09;10.75;;;4.30;;
12958;SDS011;6544;51.666;6.634;2022-10-26T00:02:36;8.60;;;4.32;;
12958;SDS011;6544;51.666;6.634;2022-10-26T00:05:05;9.13;;;4.38;;
12958;SDS011;6544;51.666;6.634;2022-10-26T00:07:32;8.35;;;4.72;;
12958;SDS011;6544;51.666;6.634;2022-10-26T00:09:59;8.75;;;4.75;;
12958;SDS011;6544;51.666;6.634;2022-10-26T00:12:26;10.63;;;4.78;;
12958;SDS011;6544;51.666;6.634;2022-10-26T00:14:52;11.68;;;4.50;;
12958;SDS011;6544;51.666;6.634;2022-10-26T00:17:19;12.15;;;4.63;;
12958;SDS011;6544;51.666;6.634;2022-10-26T00:19:46;8.50;;;4.65;;
12958;SDS011;6544;51.666;6.634;2022-10-26T00:22:14;8.63;;;5.05;;
12958;SDS011;6544;51.666;6.634;2022-10-26T00:24:41;9.50;;;4.93;;
12958;SDS011;6544;51.666;6.634;2022-10-26T00:27:08;9.55;;;4.80;;
12958;SDS011;6544;51.666;6.634;2022-10-26T00:29:35;8.70;;;4.72;;
12958;SDS011;6544;51.666;6.634;2022-10-26T00:32:02;13.20;;;4.68;;
12958;SDS011;6544;51.666;6.634;2022-10-26T00:34:28;10.98;;;4.93;;
12958;SDS011;6544;51.666;6.634;2022-10-26T00:36:55;11.43;;;4.82;;
12958;SDS011;6544;51.666;6.634;2022-10-26T00:39:24;11.15;;;4.88;;
12958;SDS011;6544;51.666;6.634;2022-10-26T00:41:50;12.30;;;5.25;;
12958;SDS011;6544;51.666;6.634;2022-10-26T00:47:34;13.27;;;5.10;;
12958;SDS011;6544;51.666;6.634;2022-10-26T00:50:06;11.90;;;5.18;;
12958;SDS011;6544;51.666;6.634;2022-10-26T00:52:35;8.95;;;5.10;;
12958;SDS011;6544;51.666;6.634;2022-10-26T00:55:05;10.10;;;4.95;;
12958;SDS011;6544;51.666;6.634;2022-10-26T00:57:33;10.13;;;4.90;;
12958;SDS011;6544;51.666;6.634;2022-10-26T01:00:03;15.50;;;5.32;;
12958;SDS011;6544;51.666;6.634;2022-10-26T01:02:31;9.55;;;5.05;;
12958;SDS011;6544;51.666;6.634;2022-10-26T01:04:58;10.30;;;4.63;;
12958;SDS011;6544;51.666;6.634;2022-10-26T01:07:25;9.35;;;4.75;;
12958;SDS011;6544;51.666;6.634;2022-10-26T01:09:53;10.25;;;4.97;;
12958;SDS011;6544;51.666;6.634;2022-10-26T01:12:22;11.68;;;4.93;;
12958;SDS011;6544;51.666;6.634;2022-10-26T01:14:49;11.60;;;5.10;;
12958;SDS011;6544;51.666;6.634;2022-10-26T01:17:20;18.92;;;5.15;;
12958;SDS011;6544;51.666;6.634;2022-10-26T01:20:02;13.55;;;5.38;;
12958;SDS011;6544;51.666;6.634;2022-10-26T01:22:48;12.60;;;5.20;;
12958;SDS011;6544;51.666;6.634;2022-10-26T01:25:26;9.57;;;5.25;;
12958;SDS011;6544;51.666;6.634;2022-10-26T01:28:18;13.15;;;5.32;;
12958;SDS011;6544;51.666;6.634;2022-10-26T01:31:00;10.23;;;5.32;;
12958;SDS011;6544;51.666;6.634;2022-10-26T01:33:30;8.95;;;5.50;;
12958;SDS011;6544;51.666;6.634;2022-10-26T01:36:04;9.23;;;5.30;;
12958;SDS011;6544;51.666;6.634;2022-10-26T01:38:39;10.27;;;5.32;;
12958;SDS011;6544;51.666;6.634;2022-10-26T01:41:12;13.35;;;5.55;;
12958;SDS011;6544;51.666;6.634;2022-10-26T01:43:45;10.20;;;5.40;;
12958;SDS011;6544;51.666;6.634;2022-10-26T01:46:18;11.73;;;5.90;;
12958;SDS011;6544;51.666;6.634;2022-10-26T01:48:48;12.80;;;6.10;;
12958;SDS011;6544;51.666;6.634;2022-10-26T01:51:16;13.68;;;5.93;;
12958;SDS011;6544;51.666;6.634;2022-10-26T01:53:45;10.77;;;5.70;;
12958;SDS011;6544;51.666;6.634;2022-10-26T01:56:13;12.82;;;6.25;;
12958;SDS011;6544;51.666;6.634;2022-10-26T02:04:39;13.85;;;6.10;;
12958;SDS011;6544;51.666;6.634;2022-10-26T02:07:17;10.15;;;6.13;;
12958;SDS011;6544;51.666;6.634;2022-10-26T02:09:52;12.90;;;6.40;;
12958;SDS011;6544;51.666;6.634;2022-10-26T02:12:28;10.70;;;5.53;;
12958;SDS011;6544;51.666;6.634;2022-10-26T02:15:00;13.02;;;5.82;;
12958;SDS011;6544;51.666;6.634;2022-10-26T02:17:32;17.52;;;6.50;;
12958;SDS011;6544;51.666;6.634;2022-10-26T02:20:14;13.52;;;6.60;;
12958;SDS011;6544;51.666;6.634;2022-10-26T02:22:47;9.02;;;5.63;;
12958;SDS011;6544;51.666;6.634;2022-10-26T02:25:16;14.00;;;6.13;;
12958;SDS011;6544;51.666;6.634;2022-10-26T02:27:48;12.60;;;6.25;;
12958;SDS011;6544;51.666;6.634;2022-10-26T02:30:19;13.20;;;6.15;;
12958;SDS011;6544;51.666;6.634;2022-10-26T02:32:46;11.85;;;6.72;;
12958;SDS011;6544;51.666;6.634;2022-10-26T02:35:19;11.95;;;6.30;;
12958;SDS011;6544;51.666;6.634;2022-10-26T02:37:50;11.73;;;6.32;;
12958;SDS011;6544;51.666;6.634;2022-10-26T02:40:19;13.38;;;6.18;;
12958;SDS011;6544;51.666;6.634;2022-10-26T02:42:50;13.38;;;6.53;;
12958;SDS011;6544;51.666;6.634;2022-10-26T02:45:20;12.02;;;5.95;;
12958;SDS011;6544;51.666;6.634;2022-10-26T02:47:51;11.25;;;5.88;;
12958;SDS011;6544;51.666;6.634;2022-10-26T02:50:22;14.80;;;6.05;;
12958;SDS011;6544;51.666;6.634;2022-10-26T02:52:54;12.32;;;6.03;;
12958;SDS011;6544;51.666;6.634;2022-10-26T02:55:27;14.48;;;5.80;;
12958;SDS011;6544;51.666;6.634;2022-10-26T02:57:58;9.27;;;5.90;;
12958;SDS011;6544;51.666;6.634;2022-10-26T03:00:27;11.40;;;5.88;;
12958;SDS011;6544;51.666;6.634;2022-10-26T03:02:56;9.73;;;6.13;;
12958;SDS011;6544;51.666;6.634;2022-10-26T03:05:28;11.25;;;5.40;;
12958;SDS011;6544;51.666;6.634;2022-10-26T03:07:59;9.45;;;5.18;;
12958;SDS011;6544;51.666;6.634;2022-10-26T03:10:25;10.10;;;5.32;;
12958;SDS011;6544;51.666;6.634;2022-10-26T03:12:52;10.23;;;5.15;;
12958;SDS011;6544;51.666;6.634;2022-10-26T03:15:20;10.02;;;5.50;;
12958;SDS011;6544;51.666;6.634;2022-10-26T03:17:47;8.32;;;5.13;;
12958;SDS011;6544;51.666;6.634;2022-10-26T03:20:13;8.77;;;5.00;;
12958;SDS011;6544;51.666;6.634;2022-10-26T03:22:42;11.45;;;5.32;;
12958;SDS011;6544;51.666;6.634;2022-10-26T03:25:09;10.32;;;5.25;;
12958;SDS011;6544;51.666;6.634;2022-10-26T03:27:35;13.13;;;5.82;;
12958;SDS011;6544;51.666;6.634;2022-10-26T03:30:03;7.55;;;5.07;;
12958;SDS011;6544;51.666;6.634;2022-10-26T03:32:31;9.48;;;5.10;;
12958;SDS011;6544;51.666;6.634;2022-10-26T03:34:57;11.48;;;4.85;;
12958;SDS011;6544;51.666;6.634;2022-10-26T03:37:24;10.80;;;5.20;;
12958;SDS011;6544;51.666;6.634;2022-10-26T03:39:53;9.40;;;5.10;;
12958;SDS011;6544;51.666;6.634;2022-10-26T03:42:20;7.75;;;4.45;;
12958;SDS011;6544;51.666;6.634;2022-10-26T03:44:47;6.95;;;4.75;;
12958;SDS011;6544;51.666;6.634;2022-10-26T03:47:13;9.23;;;5.22;;
12958;SDS011;6544;51.666;6.634;2022-10-26T03:49:40;9.52;;;4.78;;
12958;SDS011;6544;51.666;6.634;2022-10-26T03:52:07;8.45;;;5.43;;
12958;SDS011;6544;51.666;6.634;2022-10-26T03:54:34;7.85;;;4.90;;
12958;SDS011;6544;51.666;6.634;2022-10-26T03:57:02;12.15;;;5.25;;
12958;SDS011;6544;51.666;6.634;2022-10-26T03:59:29;9.05;;;5.15;;
12958;SDS011;6544;51.666;6.634;2022-10-26T04:01:56;16.02;;;4.85;;
12958;SDS011;6544;51.666;6.634;2022-10-26T04:04:23;8.40;;;4.57;;
12958;SDS011;6544;51.666;6.634;2022-10-26T04:06:50;10.70;;;5.22;;
12958;SDS011;6544;51.666;6.634;2022-10-26T04:09:17;11.20;;;5.30;;
12958;SDS011;6544;51.666;6.634;2022-10-26T04:11:43;10.50;;;4.97;;
12958;SDS011;6544;51.666;6.634;2022-10-26T04:14:12;7.18;;;4.85;;
12958;SDS011;6544;51.666;6.634;2022-10-26T04:16:39;8.90;;;4.55;;
12958;SDS011;6544;51.666;6.634;2022-10-26T04:19:06;8.60;;;4.75;;
12958;SDS011;6544;51.666;6.634;2022-10-26T04:21:32;7.47;;;4.85;;
12958;SDS011;6544;51.666;6.634;2022-10-26T04:23:59;7.15;;;5.05;;
12958;SDS011;6544;51.666;6.634;2022-10-26T04:26:27;12.52;;;4.80;;
12958;SDS011;6544;51.666;6.634;2022-10-26T04:28:53;12.07;;;5.07;;
12958;SDS011;6544;51.666;6.634;2022-10-26T04:31:22;12.93;;;4.57;;
12958;SDS011;6544;51.666;6.634;2022-10-26T04:33:49;6.80;;;4.70;;
12958;SDS011;6544;51.666;6.634;2022-10-26T04:36:16;11.43;;;4.88;;
12958;SDS011;6544;51.666;6.634;2022-10-26T04:38:43;10.52;;;4.93;;
12958;SDS011;6544;51.666;6.634;2022-10-26T04:41:10;7.97;;;4.93;;
12958;SDS011;6544;51.666;6.634;2022-10-26T04:43:37;10.73;;;4.78;;
12958;SDS011;6544;51.666;6.634;2022-10-26T04:46:04;12.48;;;4.43;;
12958;SDS011;6544;51.666;6.634;2022-10-26T04:48:32;10.95;;;5.00;;
12958;SDS011;6544;51.666;6.634;2022-10-26T04:50:59;12.48;;;5.10;;
12958;SDS011;6544;51.666;6.634;2022-10-26T04:53:27;10.13;;;4.60;;
12958;SDS011;6544;51.666;6.634;2022-10-26T04:55:57;9.93;;;4.68;;
12958;SDS011;6544;51.666;6.634;2022-10-26T04:58:24;9.18;;;4.90;;
12958;SDS011;6544;51.666;6.634;2022-10-26T05:00:51;11.20;;;4.95;;
12958;SDS011;6544;51.666;6.634;2022-10-26T05:03:18;9.75;;;4.78;;
12958;SDS011;6544;51.666;6.634;2022-10-26T05:05:47;8.20;;;4.60;;
12958;SDS011;6544;51.666;6.634;2022-10-26T05:08:14;8.55;;;4.88;;
12958;SDS011;6544;51.666;6.634;2022-10-26T05:10:41;7.80;;;4.60;;
12958;SDS011;6544;51.666;6.634;2022-10-26T05:13:08;8.15;;;4.57;;
12958;SDS011;6544;51.666;6.634;2022-10-26T05:15:36;10.13;;;5.18;;
12958;SDS011;6544;51.666;6.634;2022-10-26T05:18:03;8.32;;;4.60;;
12958;SDS011;6544;51.666;6.634;2022-10-26T05:20:33;10.52;;;4.30;;
12958;SDS011;6544;51.666;6.634;2022-10-26T05:23:03;7.80;;;4.45;;
12958;SDS011;6544;51.666;6.634;2022-10-26T05:25:31;11.43;;;4.68;;
12958;SDS011;6544;51.666;6.634;2022-10-26T05:28:00;10.35;;;4.60;;
12958;SDS011;6544;51.666;6.634;2022-10-26T05:30:29;9.10;;;4.75;;
12958;SDS011;6544;51.666;6.634;2022-10-26T05:32:57;12.90;;;5.03;;
12958;SDS011;6544;51.666;6.634;2022-10-26T05:35:26;9.52;;;4.53;;
12958;SDS011;6544;51.666;6.634;2022-10-26T05:37:53;9.90;;;4.72;;
12958;SDS011;6544;51.666;6.634;2022-10-26T05:40:21;12.45;;;5.00;;
12958;SDS011;6544;51.666;6.634;2022-10-26T05:42:49;8.63;;;4.80;;
12958;SDS011;6544;51.666;6.634;2022-10-26T05:45:16;13.07;;;4.90;;
12958;SDS011;6544;51.666;6.634;2022-10-26T05:47:43;6.80;;;4.55;;
12958;SDS011;6544;51.666;6.634;2022-10-26T05:50:10;8.30;;;4.70;;
12958;SDS011;6544;51.666;6.634;2022-10-26T05:52:38;11.73;;;4.80;;
12958;SDS011;6544;51.666;6.634;2022-10-26T05:55:06;7.53;;;4.30;;
12958;SDS011;6544;51.666;6.634;2022-10-26T05:57:35;11.30;;;4.93;;
12958;SDS011;6544;51.666;6.634;2022-10-26T06:00:06;9.35;;;4.30;;
12958;SDS011;6544;51.666;6.634;2022-10-26T06:02:35;11.70;;;4.78;;
12958;SDS011;6544;51.666;6.634;2022-10-26T06:05:09;12.05;;;4.35;;
12958;SDS011;6544;51.666;6.634;2022-10-26T06:07:40;9.48;;;4.07;;
12958;SDS011;6544;51.666;6.634;2022-10-26T06:10:08;6.85;;;3.78;;
12958;SDS011;6544;51.666;6.634;2022-10-26T06:12:38;8.48;;;4.00;;
12958;SDS011;6544;51.666;6.634;2022-10-26T06:15:06;7.72;;;3.97;;
12958;SDS011;6544;51.666;6.634;2022-10-26T06:17:41;9.85;;;4.00;;
12958;SDS011;6544;51.666;6.634;2022-10-26T06:20:22;10.70;;;3.90;;
12958;SDS011;6544;51.666;6.634;2022-10-26T06:23:01;9.40;;;4.10;;
12958;SDS011;6544;51.666;6.634;2022-10-26T06:25:40;7.50;;;4.10;;
12958;SDS011;6544;51.666;6.634;2022-10-26T06:28:18;11.20;;;4.00;;
12958;SDS011;6544;51.666;6.634;2022-10-26T06:30:54;11.07;;;3.92;;
12958;SDS011;6544;51.666;6.634;2022-10-26T06:33:22;10.40;;;4.10;;
12958;SDS011;6544;51.666;6.634;2022-10-26T06:35:53;8.27;;;3.70;;
12958;SDS011;6544;51.666;6.634;2022-10-26T06:38:27;6.70;;;3.25;;
12958;SDS011;6544;51.666;6.634;2022-10-26T06:40:55;7.10;;;3.58;;
12958;SDS011;6544;51.666;6.634;2022-10-26T06:43:26;7.72;;;3.78;;
12958;SDS011;6544;51.666;6.634;2022-10-26T06:45:55;8.43;;;3.60;;
12958;SDS011;6544;51.666;6.634;2022-10-26T06:48:32;7.97;;;3.58;;
12958;SDS011;6544;51.666;6.634;2022-10-26T06:51:08;8.75;;;3.60;;
12958;SDS011;6544;51.666;6.634;2022-10-26T06:53:40;8.95;;;3.60;;
12958;SDS011;6544;51.666;6.634;2022-10-26T06:56:12;11.25;;;3.70;;
12958;SDS011;6544;51.666;6.634;2022-10-26T06:58:41;9.43;;;3.97;;
12958;SDS011;6544;51.666;6.634;2022-10-26T07:01:10;6.95;;;3.92;;
12958;SDS011;6544;51.666;6.634;2022-10-26T07:03:38;12.02;;;3.97;;
12958;SDS011;6544;51.666;6.634;2022-10-26T07:06:05;7.28;;;3.60;;
12958;SDS011;6544;51.666;6.634;2022-10-26T07:08:32;9.95;;;3.83;;
12958;SDS011;6544;51.666;6.634;2022-10-26T07:10:59;9.70;;;3.50;;
12958;SDS011;6544;51.666;6.634;2022-10-26T07:13:26;15.05;;;3.83;;
12958;SDS011;6544;51.666;6.634;2022-10-26T07:15:54;7.18;;;3.70;;
12958;SDS011;6544;51.666;6.634;2022-10-26T07:18:21;8.15;;;4.20;;
12958;SDS011;6544;51.666;6.634;2022-10-26T07:20:48;8.43;;;4.47;;
12958;SDS011;6544;51.666;6.634;2022-10-26T07:23:15;11.88;;;4.72;;
12958;SDS011;6544;51.666;6.634;2022-10-26T07:25:42;8.45;;;4.20;;
12958;SDS011;6544;51.666;6.634;2022-10-26T07:28:09;13.98;;;5.22;;
12958;SDS011;6544;51.666;6.634;2022-10-26T07:30:36;15.00;;;5.75;;
12958;SDS011;6544;51.666;6.634;2022-10-26T07:33:06;10.45;;;4.25;;
12958;SDS011;6544;51.666;6.634;2022-10-26T07:35:35;10.93;;;4.57;;
12958;SDS011;6544;51.666;6.634;2022-10-26T07:38:04;10.02;;;3.80;;
12958;SDS011;6544;51.666;6.634;2022-10-26T07:40:32;8.52;;;2.90;;
12958;SDS011;6544;51.666;6.634;2022-10-26T07:42:59;8.30;;;2.83;;
12958;SDS011;6544;51.666;6.634;2022-10-26T07:45:27;5.82;;;2.72;;
12958;SDS011;6544;51.666;6.634;2022-10-26T07:47:55;7.53;;;2.70;;
12958;SDS011;6544;51.666;6.634;2022-10-26T07:50:24;8.10;;;3.05;;
12958;SDS011;6544;51.666;6.634;2022-10-26T07:52:51;3.30;;;2.20;;
12958;SDS011;6544;51.666;6.634;2022-10-26T07:55:18;10.38;;;2.70;;
12958;SDS011;6544;51.666;6.634;2022-10-26T07:57:45;7.70;;;2.53;;
12958;SDS011;6544;51.666;6.634;2022-10-26T08:00:12;5.97;;;2.40;;
12958;SDS011;6544;51.666;6.634;2022-10-26T08:02:40;5.95;;;2.63;;
12958;SDS011;6544;51.666;6.634;2022-10-26T08:05:07;8.35;;;2.50;;
12958;SDS011;6544;51.666;6.634;2022-10-26T08:07:40;7.47;;;2.90;;
12958;SDS011;6544;51.666;6.634;2022-10-26T08:10:08;7.85;;;2.47;;
12958;SDS011;6544;51.666;6.634;2022-10-26T08:12:35;7.45;;;2.50;;
12958;SDS011;6544;51.666;6.634;2022-10-26T08:15:02;6.82;;;2.60;;
12958;SDS011;6544;51.666;6.634;2022-10-26T08:17:30;8.20;;;3.00;;
12958;SDS011;6544;51.666;6.634;2022-10-26T08:19:57;6.82;;;2.80;;
12958;SDS011;6544;51.666;6.634;2022-10-26T08:22:24;6.72;;;2.97;;
12958;SDS011;6544;51.666;6.634;2022-10-26T08:24:52;8.10;;;2.60;;
12958;SDS011;6544;51.666;6.634;2022-10-26T08:27:19;5.15;;;2.58;;
12958;SDS011;6544;51.666;6.634;2022-10-26T08:29:46;7.03;;;3.00;;
12958;SDS011;6544;51.666;6.634;2022-10-26T08:32:13;7.53;;;2.90;;
12958;SDS011;6544;51.666;6.634;2022-10-26T08:34:39;7.05;;;2.58;;
12958;SDS011;6544;51.666;6.634;2022-10-26T08:37:06;5.00;;;2.70;;
12958;SDS011;6544;51.666;6.634;2022-10-26T08:39:33;7.53;;;2.78;;
12958;SDS011;6544;51.666;6.634;2022-10-26T08:42:03;8.38;;;2.85;;
12958;SDS011;6544;51.666;6.634;2022-10-26T08:44:37;11.43;;;2.88;;
12958;SDS011;6544;51.666;6.634;2022-10-26T08:47:09;5.70;;;2.90;;
12958;SDS011;6544;51.666;6.634;2022-10-26T08:49:43;9.55;;;2.63;;
12958;SDS011;6544;51.666;6.634;2022-10-26T08:52:14;7.00;;;3.03;;
12958;SDS011;6544;51.666;6.634;2022-10-26T08:54:49;7.15;;;2.88;;
12958;SDS011;6544;51.666;6.634;2022-10-26T08:57:20;6.93;;;3.20;;
12958;SDS011;6544;51.666;6.634;2022-10-26T08:59:52;5.68;;;2.92;;
12958;SDS011;6544;51.666;6.634;2022-10-26T09:02:22;7.57;;;2.83;;
12958;SDS011;6544;51.666;6.634;2022-10-26T09:04:50;5.90;;;2.83;;
12958;SDS011;6544;51.666;6.634;2022-10-26T09:07:21;5.68;;;2.70;;
12958;SDS011;6544;51.666;6.634;2022-10-26T09:09:59;6.88;;;2.65;;
12958;SDS011;6544;51.666;6.634;2022-10-26T09:12:39;7.22;;;3.10;;
12958;SDS011;6544;51.666;6.634;2022-10-26T09:15:13;10.05;;;3.30;;
12958;SDS011;6544;51.666;6.634;2022-10-26T09:17:52;5.22;;;2.80;;
12958;SDS011;6544;51.666;6.634;2022-10-26T09:20:35;4.80;;;2.67;;
12958;SDS011;6544;51.666;6.634;2022-10-26T09:23:16;6.30;;;2.67;;
12958;SDS011;6544;51.666;6.634;2022-10-26T09:25:57;7.60;;;2.70;;
12958;SDS011;6544;51.666;6.634;2022-10-26T09:28:27;6.68;;;2.40;;
12958;SDS011;6544;51.666;6.634;2022-10-26T09:30:58;4.88;;;2.30;;
12958;SDS011;6544;51.666;6.634;2022-10-26T09:33:26;6.00;;;2.30;;
12958;SDS011;6544;51.666;6.634;2022-10-26T09:35:56;5.78;;;2.38;;
12958;SDS011;6544;51.666;6.634;2022-10-26T09:38:27;4.55;;;2.17;;
12958;SDS011;6544;51.666;6.634;2022-10-26T09:40:58;5.88;;;2.28;;
12958;SDS011;6544;51.666;6.634;2022-10-26T09:43:31;6.85;;;2.42;;
12958;SDS011;6544;51.666;6.634;2022-10-26T09:46:03;3.95;;;2.10;;
12958;SDS011;6544;51.666;6.634;2022-10-26T09:48:32;6.20;;;2.40;;
12958;SDS011;6544;51.666;6.634;2022-10-26T09:51:04;5.93;;;2.30;;
12958;SDS011;6544;51.666;6.634;2022-10-26T09:53:32;7.03;;;2.10;;
12958;SDS011;6544;51.666;6.634;2022-10-26T09:56:00;8.07;;;2.58;;
12958;SDS011;6544;51.666;6.634;2022-10-26T09:58:33;6.18;;;2.38;;
12958;SDS011;6544;51.666;6.634;2022-10-26T10:01:05;5.78;;;2.80;;
12958;SDS011;6544;51.666;6.634;2022-10-26T10:03:32;4.85;;;2.20;;
12958;SDS011;6544;51.666;6.634;2022-10-26T10:08:47;5.97;;;2.28;;
12958;SDS011;6544;51.666;6.634;2022-10-26T10:11:35;9.88;;;2.55;;
12958;SDS011;6544;51.666;6.634;2022-10-26T10:14:06;8.57;;;2.53;;
12958;SDS011;6544;51.666;6.634;2022-10-26T10:16:34;6.38;;;2.88;;
12958;SDS011;6544;51.666;6.634;2022-10-26T10:19:01;5.20;;;2.38;;
12958;SDS011;6544;51.666;6.634;2022-10-26T10:21:32;5.70;;;2.15;;
12958;SDS011;6544;51.666;6.634;2022-10-26T10:24:01;9.60;;;2.40;;
12958;SDS011;6544;51.666;6.634;2022-10-26T10:26:52;5.15;;;2.13;;
12958;SDS011;6544;51.666;6.634;2022-10-26T10:29:25;4.88;;;2.40;;
12958;SDS011;6544;51.666;6.634;2022-10-26T10:31:55;5.63;;;2.38;;
12958;SDS011;6544;51.666;6.634;2022-10-26T10:34:23;7.25;;;2.47;;
12958;SDS011;6544;51.666;6.634;2022-10-26T10:36:50;8.45;;;2.95;;
12958;SDS011;6544;51.666;6.634;2022-10-26T10:39:27;7.60;;;2.42;;
12958;SDS011;6544;51.666;6.634;2022-10-26T10:42:13;4.95;;;2.63;;
12958;SDS011;6544;51.666;6.634;2022-10-26T10:44:45;5.88;;;2.58;;
12958;SDS011;6544;51.666;6.634;2022-10-26T10:47:17;4.68;;;2.30;;
12958;SDS011;6544;51.666;6.634;2022-10-26T10:49:55;6.47;;;2.30;;
12958;SDS011;6544;51.666;6.634;2022-10-26T10:52:25;7.65;;;2.47;;
12958;SDS011;6544;51.666;6.634;2022-10-26T10:54:56;7.05;;;2.53;;
12958;SDS011;6544;51.666;6.634;2022-10-26T10:57:35;6.93;;;2.63;;
12958;SDS011;6544;51.666;6.634;2022-10-26T11:00:14;8.98;;;2.38;;
12958;SDS011;6544;51.666;6.634;2022-10-26T11:05:52;4.20;;;2.53;;
12958;SDS011;6544;51.666;6.634;2022-10-26T11:08:31;5.47;;;2.72;;
12958;SDS011;6544;51.666;6.634;2022-10-26T11:11:05;3.65;;;2.05;;
12958;SDS011;6544;51.666;6.634;2022-10-26T11:13:36;6.45;;;2.13;;
12958;SDS011;6544;51.666;6.634;2022-10-26T11:16:11;7.13;;;2.50;;
12958;SDS011;6544;51.666;6.634;2022-10-26T11:18:40;6.97;;;2.47;;
12958;SDS011;6544;51.666;6.634;2022-10-26T11:21:16;5.82;;;2.40;;
12958;SDS011;6544;51.666;6.634;2022-10-26T11:23:49;5.03;;;2.40;;
12958;SDS011;6544;51.666;6.634;2022-10-26T11:26:23;6.35;;;2.20;;
12958;SDS011;6544;51.666;6.634;2022-10-26T11:28:56;7.32;;;2.50;;
12958;SDS011;6544;51.666;6.634;2022-10-26T11:31:27;6.63;;;2.35;;
12958;SDS011;6544;51.666;6.634;2022-10-26T11:34:04;6.72;;;2.65;;
12958;SDS011;6544;51.666;6.634;2022-10-26T11:36:42;5.60;;;2.33;;
12958;SDS011;6544;51.666;6.634;2022-10-26T11:39:15;6.68;;;2.40;;
12958;SDS011;6544;51.666;6.634;2022-10-26T11:41:48;7.50;;;2.60;;
12958;SDS011;6544;51.666;6.634;2022-10-26T11:44:21;6.82;;;2.50;;
12958;SDS011;6544;51.666;6.634;2022-10-26T11:46:56;7.70;;;2.45;;
12958;SDS011;6544;51.666;6.634;2022-10-26T11:49:29;8.02;;;2.30;;
12958;SDS011;6544;51.666;6.634;2022-10-26T11:52:04;6.15;;;2.70;;
12958;SDS011;6544;51.666;6.634;2022-10-26T11:54:39;7.72;;;2.60;;
12958;SDS011;6544;51.666;6.634;2022-10-26T11:57:11;5.68;;;2.60;;
12958;SDS011;6544;51.666;6.634;2022-10-26T11:59:41;7.90;;;2.45;;
12958;SDS011;6544;51.666;6.634;2022-10-26T12:02:14;9.25;;;2.60;;
12958;SDS011;6544;51.666;6.634;2022-10-26T12:04:45;5.43;;;2.40;;
12958;SDS011;6544;51.666;6.634;2022-10-26T12:07:19;5.03;;;2.25;;
12958;SDS011;6544;51.666;6.634;2022-10-26T12:09:50;5.85;;;2.58;;
12958;SDS011;6544;51.666;6.634;2022-10-26T12:12:20;6.57;;;2.13;;
12958;SDS011;6544;51.666;6.634;2022-10-26T12:14:55;5.68;;;2.30;;
12958;SDS011;6544;51.666;6.634;2022-10-26T12:17:33;5.47;;;2.50;;
12958;SDS011;6544;51.666;6.634;2022-10-26T12:20:06;7.63;;;2.33;;
12958;SDS011;6544;51.666;6.634;2022-10-26T12:22:48;7.40;;;2.45;;
12958;SDS011;6544;51.666;6.634;2022-10-26T12:25:19;7.53;;;2.70;;
12958;SDS011;6544;51.666;6.634;2022-10-26T12:27:51;6.65;;;2.40;;
12958;SDS011;6544;51.666;6.634;2022-10-26T12:30:27;5.50;;;2.28;;
12958;SDS011;6544;51.666;6.634;2022-10-26T12:32:57;5.32;;;2.25;;
12958;SDS011;6544;51.666;6.634;2022-10-26T12:35:27;3.95;;;1.98;;
12958;SDS011;6544;51.666;6.634;2022-10-26T12:41:17;5.13;;;2.08;;
12958;SDS011;6544;51.666;6.634;2022-10-26T12:43:46;4.50;;;2.00;;
12958;SDS011;6544;51.666;6.634;2022-10-26T12:55:30;8.80;;;2.60;;
12958;SDS011;6544;51.666;6.634;2022-10-26T13:04:51;5.18;;;2.00;;
12958;SDS011;6544;51.666;6.634;2022-10-26T13:07:33;5.10;;;1.98;;
12958;SDS011;6544;51.666;6.634;2022-10-26T13:10:03;6.63;;;1.67;;
12958;SDS011;6544;51.666;6.634;2022-10-26T13:12:44;3.22;;;1.83;;
12958;SDS011;6544;51.666;6.634;2022-10-26T13:15:18;5.22;;;2.28;;
12958;SDS011;6544;51.666;6.634;2022-10-26T13:17:55;4.50;;;1.80;;
12958;SDS011;6544;51.666;6.634;2022-10-26T13:20:26;5.20;;;1.80;;
12958;SDS011;6544;51.666;6.634;2022-10-26T13:22:55;3.80;;;1.80;;
12958;SDS011;6544;51.666;6.634;2022-10-26T13:25:25;4.18;;;1.85;;
12958;SDS011;6544;51.666;6.634;2022-10-26T13:27:58;5.63;;;1.92;;
12958;SDS011;6544;51.666;6.634;2022-10-26T13:33:15;6.63;;;1.77;;
12958;SDS011;6544;51.666;6.634;2022-10-26T13:35:50;4.65;;;2.05;;
12958;SDS011;6544;51.666;6.634;2022-10-26T13:38:21;2.85;;;1.80;;
12958;SDS011;6544;51.666;6.634;2022-10-26T13:40:53;2.78;;;1.63;;
12958;SDS011;6544;51.666;6.634;2022-10-26T13:43:38;5.68;;;2.10;;
12958;SDS011;6544;51.666;6.634;2022-10-26T13:46:05;4.93;;;1.83;;
12958;SDS011;6544;51.666;6.634;2022-10-26T13:48:40;8.27;;;2.13;;
12958;SDS011;6544;51.666;6.634;2022-10-26T13:51:13;9.40;;;2.65;;
12958;SDS011;6544;51.666;6.634;2022-10-26T13:53:45;4.57;;;1.92;;
12958;SDS011;6544;51.666;6.634;2022-10-26T13:56:21;6.70;;;2.17;;
12958;SDS011;6544;51.666;6.634;2022-10-26T13:58:54;5.75;;;1.85;;
12958;SDS011;6544;51.666;6.634;2022-10-26T14:01:25;5.15;;;2.13;;
12958;SDS011;6544;51.666;6.634;2022-10-26T14:03:53;7.95;;;2.65;;
12958;SDS011;6544;51.666;6.634;2022-10-26T14:06:22;5.03;;;2.00;;
12958;SDS011;6544;51.666;6.634;2022-10-26T14:08:53;7.07;;;2.28;;
12958;SDS011;6544;51.666;6.634;2022-10-26T14:11:25;6.97;;;2.10;;
12958;SDS011;6544;51.666;6.634;2022-10-26T14:13:57;5.18;;;1.50;;
12958;SDS011;6544;51.666;6.634;2022-10-26T14:16:26;8.60;;;1.70;;
12958;SDS011;6544;51.666;6.634;2022-10-26T14:18:55;4.10;;;1.77;;
12958;SDS011;6544;51.666;6.634;2022-10-26T14:21:22;4.07;;;1.60;;
12958;SDS011;6544;51.666;6.634;2022-10-26T14:23:50;4.50;;;1.65;;
12958;SDS011;6544;51.666;6.634;2022-10-26T14:26:21;4.00;;;2.00;;
12958;SDS011;6544;51.666;6.634;2022-10-26T14:28:51;4.57;;;1.90;;
12958;SDS011;6544;51.666;6.634;2022-10-26T14:31:23;4.30;;;1.80;;
12958;SDS011;6544;51.666;6.634;2022-10-26T14:33:53;6.63;;;1.90;;
12958;SDS011;6544;51.666;6.634;2022-10-26T14:36:21;4.18;;;2.00;;
12958;SDS011;6544;51.666;6.634;2022-10-26T14:38:53;3.22;;;2.00;;
12958;SDS011;6544;51.666;6.634;2022-10-26T14:41:25;6.40;;;2.10;;
12958;SDS011;6544;51.666;6.634;2022-10-26T14:43:55;4.30;;;1.77;;
12958;SDS011;6544;51.666;6.634;2022-10-26T14:46:25;4.75;;;1.80;;
12958;SDS011;6544;51.666;6.634;2022-10-26T14:48:54;5.28;;;1.50;;
12958;SDS011;6544;51.666;6.634;2022-10-26T14:51:24;7.45;;;1.52;;
12958;SDS011;6544;51.666;6.634;2022-10-26T14:53:53;4.38;;;1.80;;
12958;SDS011;6544;51.666;6.634;2022-10-26T14:56:23;4.70;;;2.00;;
12958;SDS011;6544;51.666;6.634;2022-10-26T14:58:55;4.03;;;2.05;;
12958;SDS011;6544;51.666;6.634;2022-10-26T15:01:24;3.28;;;1.70;;
12958;SDS011;6544;51.666;6.634;2022-10-26T15:03:56;4.65;;;1.83;;
12958;SDS011;6544;51.666;6.634;2022-10-26T15:06:28;5.68;;;1.80;;
12958;SDS011;6544;51.666;6.634;2022-10-26T15:09:02;7.53;;;2.13;;
12958;SDS011;6544;51.666;6.634;2022-10-26T15:11:31;3.67;;;1.60;;
12958;SDS011;6544;51.666;6.634;2022-10-26T15:14:00;5.28;;;1.95;;
12958;SDS011;6544;51.666;6.634;2022-10-26T15:16:28;5.97;;;2.25;;
12958;SDS011;6544;51.666;6.634;2022-10-26T15:18:58;4.93;;;1.95;;
12958;SDS011;6544;51.666;6.634;2022-10-26T15:21:33;4.05;;;1.70;;
12958;SDS011;6544;51.666;6.634;2022-10-26T15:24:01;5.00;;;2.30;;
12958;SDS011;6544;51.666;6.634;2022-10-26T15:26:41;9.52;;;2.22;;
12958;SDS011;6544;51.666;6.634;2022-10-26T15:29:29;4.93;;;2.10;;
12958;SDS011;6544;51.666;6.634;2022-10-26T15:32:03;3.40;;;1.70;;
12958;SDS011;6544;51.666;6.634;2022-10-26T15:34:31;5.00;;;1.90;;
12958;SDS011;6544;51.666;6.634;2022-10-26T15:36:58;6.55;;;2.35;;
12958;SDS011;6544;51.666;6.634;2022-10-26T15:39:25;4.47;;;1.98;;
12958;SDS011;6544;51.666;6.634;2022-10-26T15:41:52;6.72;;;2.40;;
12958;SDS011;6544;51.666;6.634;2022-10-26T15:44:22;5.65;;;2.15;;
12958;SDS011;6544;51.666;6.634;2022-10-26T15:46:49;5.65;;;2.10;;
12958;SDS011;6544;51.666;6.634;2022-10-26T15:49:17;4.10;;;1.83;;
12958;SDS011;6544;51.666;6.634;2022-10-26T15:51:45;4.22;;;2.03;;
12958;SDS011;6544;51.666;6.634;2022-10-26T15:54:14;8.40;;;1.98;;